createdAt,value
2023-05-18T00:01:15.428Z,3.22
2023-05-18T00:02:56.313Z,3.18
2023-05-18T00:04:41.954Z,2.78
2023-05-18T00:06:07.181Z,2.82
2023-05-18T00:07:43.856Z,3.26
2023-05-18T00:09:07.193Z,3.63
2023-05-18T00:10:42.869Z,3.07
2023-05-18T00:12:28.148Z,2.83
2023-05-18T00:14:08.851Z,3.38
2023-05-18T00:15:42.183Z,3.31
2023-05-18T00:17:04.005Z,3.13
2023-05-18T00:18:37.065Z,3.19
2023-05-18T00:19:59.622Z,3.44
2023-05-18T00:21:44.144Z,3.29
2023-05-18T00:23:11.156Z,3.21
2023-05-18T00:24:33.350Z,3.13
2023-05-18T00:26:10.446Z,3.02
2023-05-18T00:27:32.743Z,3.04
2023-05-18T00:28:54.781Z,3.05
2023-05-18T00:30:36.403Z,2.69
2023-05-18T00:32:00.404Z,3.20
2023-05-18T00:33:36.509Z,2.78
2023-05-18T00:35:00.546Z,2.71
2023-05-18T00:36:22.843Z,2.99
2023-05-18T00:37:49.668Z,3.12
2023-05-18T00:39:25.403Z,3.64
2023-05-18T00:40:51.786Z,3.50
2023-05-18T00:42:15.723Z,3.61
2023-05-18T00:43:51.341Z,3.17
2023-05-18T00:45:37.985Z,3.66
2023-05-18T00:47:12.065Z,3.46
2023-05-18T00:48:57.019Z,3.48
2023-05-18T00:50:37.889Z,3.35
2023-05-18T00:52:13.747Z,3.16
2023-05-18T00:53:47.182Z,3.05
2023-05-18T00:55:29.139Z,3.43
2023-05-18T00:57:02.974Z,3.23
2023-05-18T00:58:24.601Z,3.04
2023-05-18T01:00:00.288Z,3.31
2023-05-18T01:01:48.589Z,3.26
2023-05-18T01:03:15.634Z,3.15
2023-05-18T01:04:46.788Z,3.33
2023-05-18T01:06:20.964Z,3.36
2023-05-18T01:08:01.864Z,2.95
2023-05-18T01:09:24.217Z,2.93
2023-05-18T01:10:59.837Z,3.39
2023-05-18T01:12:40.620Z,3.04
2023-05-18T01:14:09.837Z,3.48
2023-05-18T01:15:45.336Z,3.18
2023-05-18T01:17:14.656Z,2.89
2023-05-18T01:19:08.576Z,3.52
2023-05-18T01:20:44.664Z,3.55
2023-05-18T01:22:13.946Z,3.21
2023-05-18T01:23:48.558Z,3.54
2023-05-18T01:25:37.079Z,3.11
2023-05-18T01:27:13.738Z,2.68
2023-05-18T01:28:37.438Z,2.85
2023-05-18T01:30:09.119Z,3.30
2023-05-18T01:31:42.593Z,3.47
2023-05-18T01:33:04.768Z,3.27
2023-05-18T01:34:40.878Z,3.61
2023-05-18T01:36:02.806Z,3.42
2023-05-18T01:37:27.668Z,3.39
2023-05-18T01:39:03.612Z,3.28
2023-05-18T01:40:28.157Z,3.28
2023-05-18T01:42:03.522Z,3.46
2023-05-18T01:43:25.790Z,2.90
2023-05-18T01:44:50.126Z,3.24
2023-05-18T01:46:19.372Z,2.85
2023-05-18T01:47:40.768Z,3.31
2023-05-18T01:49:05.015Z,3.03
2023-05-18T01:50:28.960Z,3.58
2023-05-18T01:52:14.731Z,3.08
2023-05-18T01:53:50.300Z,3.20
2023-05-18T01:55:24.280Z,3.41
2023-05-18T01:56:59.218Z,3.60
2023-05-18T01:58:46.608Z,3.28
2023-05-18T02:00:22.512Z,3.32
2023-05-18T02:01:59.408Z,3.05
2023-05-18T02:03:22.525Z,2.92
2023-05-18T02:04:56.426Z,3.16
2023-05-18T02:06:34.317Z,3.14
2023-05-18T02:08:19.966Z,3.15
2023-05-18T02:09:44.198Z,3.53
2023-05-18T02:11:17.696Z,3.29
2023-05-18T02:12:52.867Z,3.08
2023-05-18T02:14:38.213Z,3.29
2023-05-18T02:16:02.048Z,3.39
2023-05-18T02:17:31.543Z,3.05
2023-05-18T02:19:16.596Z,3.43
2023-05-18T02:20:57.348Z,3.33
2023-05-18T02:22:42.697Z,3.28
2023-05-18T02:24:09.092Z,3.36
2023-05-18T02:25:39.995Z,3.51
2023-05-18T02:27:04.192Z,3.57
2023-05-18T02:28:37.877Z,3.48
2023-05-18T02:30:16.189Z,3.53
2023-05-18T02:31:42.473Z,3.67
2023-05-18T02:33:04.497Z,3.41
2023-05-18T02:34:44.650Z,3.40
2023-05-18T02:36:18.428Z,3.30
2023-05-18T02:37:44.036Z,3.44
2023-05-18T02:39:06.580Z,3.51
2023-05-18T02:40:37.948Z,3.50
2023-05-18T02:42:18.875Z,3.49
2023-05-18T02:43:57.040Z,3.35
2023-05-18T02:45:20.898Z,3.53
2023-05-18T02:46:54.163Z,3.23
2023-05-18T02:48:18.112Z,3.50
2023-05-18T02:50:03.376Z,3.40
2023-05-18T02:51:40.241Z,3.43
2023-05-18T02:53:05.560Z,3.44
2023-05-18T02:54:38.984Z,3.53
2023-05-18T02:56:05.856Z,3.50
2023-05-18T02:57:36.255Z,3.54
2023-05-18T02:59:16.050Z,3.81
2023-05-18T03:00:57.521Z,3.38
2023-05-18T03:02:27.552Z,3.54
2023-05-18T03:03:51.997Z,3.40
2023-05-18T03:05:25.288Z,2.95
2023-05-18T03:06:52.862Z,3.38
2023-05-18T03:08:29.167Z,3.14
2023-05-18T03:10:09.713Z,3.33
2023-05-18T03:11:45.617Z,3.35
2023-05-18T03:13:19.316Z,3.47
2023-05-18T03:14:45.664Z,3.50
2023-05-18T03:16:21.693Z,3.59
2023-05-18T03:17:50.808Z,3.27
2023-05-18T03:19:16.342Z,2.77
2023-05-18T03:20:49.886Z,3.19
2023-05-18T03:22:36.236Z,3.37
2023-05-18T03:24:10.181Z,3.77
2023-05-18T03:25:44.800Z,3.40
2023-05-18T03:27:34.540Z,3.62
2023-05-18T03:29:08.409Z,3.47
2023-05-18T03:30:34.654Z,3.77
2023-05-18T03:32:00.129Z,3.87
2023-05-18T03:33:26.973Z,3.57
2023-05-18T03:35:01.174Z,3.47
2023-05-18T03:36:28.098Z,3.51
2023-05-18T03:38:08.900Z,3.50
2023-05-18T03:39:40.773Z,3.24
2023-05-18T03:41:14.391Z,3.54
2023-05-18T03:42:38.389Z,3.20
2023-05-18T03:44:02.524Z,3.09
2023-05-18T03:45:37.261Z,3.23
2023-05-18T03:47:11.752Z,3.18
2023-05-18T03:48:33.441Z,3.23
2023-05-18T03:49:55.385Z,2.89
2023-05-18T03:51:29.037Z,3.29
2023-05-18T03:53:02.385Z,2.99
2023-05-18T03:54:38.391Z,3.96
2023-05-18T03:56:03.199Z,3.75
2023-05-18T03:57:28.454Z,4.00
2023-05-18T03:59:10.406Z,3.85
2023-05-18T04:00:49.108Z,3.79
2023-05-18T04:02:23.082Z,3.70
2023-05-18T04:04:04.869Z,3.44
2023-05-18T04:05:49.957Z,3.14
2023-05-18T04:07:16.522Z,3.48
2023-05-18T04:08:57.543Z,3.47
2023-05-18T04:10:28.029Z,3.41
2023-05-18T04:12:02.950Z,3.65
2023-05-18T04:13:27.164Z,3.33
2023-05-18T04:15:20.657Z,3.49
2023-05-18T04:17:14.302Z,3.12
2023-05-18T04:18:44.393Z,3.22
2023-05-18T04:20:14.433Z,3.42
2023-05-18T04:21:43.690Z,3.75
2023-05-18T04:23:28.654Z,3.84
2023-05-18T04:25:08.959Z,3.54
2023-05-18T04:26:43.251Z,3.74
2023-05-18T04:28:28.698Z,3.36
2023-05-18T04:30:03.562Z,3.58
2023-05-18T04:31:48.745Z,3.50
2023-05-18T04:33:20.057Z,3.63
2023-05-18T04:35:13.813Z,3.26
2023-05-18T04:36:36.032Z,3.50
2023-05-18T04:38:22.248Z,3.49
2023-05-18T04:40:07.286Z,3.57
2023-05-18T04:41:55.757Z,3.05
2023-05-18T04:43:29.635Z,3.32
2023-05-18T04:45:06.209Z,3.28
2023-05-18T04:46:47.144Z,3.41
2023-05-18T04:48:32.602Z,2.96
2023-05-18T04:50:10.963Z,3.44
2023-05-18T04:51:44.089Z,3.33
2023-05-18T04:53:18.126Z,3.59
2023-05-18T04:54:53.336Z,3.08
2023-05-18T04:56:27.459Z,3.39
2023-05-18T04:58:01.255Z,3.24
2023-05-18T04:59:42.662Z,3.09
2023-05-18T05:01:16.941Z,3.28
2023-05-18T05:02:50.518Z,3.39
2023-05-18T05:04:23.935Z,3.02
2023-05-18T05:06:08.741Z,3.44
2023-05-18T05:07:54.442Z,3.79
2023-05-18T05:09:35.388Z,3.37
2023-05-18T05:11:00.049Z,3.69
2023-05-18T05:12:42.730Z,3.46
2023-05-18T05:14:19.501Z,3.44
2023-05-18T05:15:48.554Z,3.24
2023-05-18T05:17:15.334Z,3.45
2023-05-18T05:18:48.721Z,3.05
2023-05-18T05:20:41.354Z,3.23
2023-05-18T05:22:26.944Z,2.80
2023-05-18T05:24:12.349Z,3.29
2023-05-18T05:25:56.864Z,3.37
2023-05-18T05:27:42.861Z,3.16
2023-05-18T05:29:30.438Z,2.91
2023-05-18T05:30:54.652Z,2.93
2023-05-18T05:32:36.180Z,3.33
2023-05-18T05:34:18.146Z,3.40
2023-05-18T05:36:03.208Z,3.43
2023-05-18T05:37:39.521Z,3.12
2023-05-18T05:39:13.294Z,2.77
2023-05-18T05:40:49.167Z,2.70
2023-05-18T05:42:12.902Z,2.91
2023-05-18T05:43:49.038Z,3.02
2023-05-18T05:45:30.033Z,2.90
2023-05-18T05:47:26.705Z,2.82
2023-05-18T05:49:07.589Z,3.04
2023-05-18T05:50:41.450Z,3.36
2023-05-18T05:52:17.176Z,3.25
2023-05-18T05:54:01.976Z,3.02
2023-05-18T05:55:42.753Z,2.91
2023-05-18T05:57:40.269Z,2.77
2023-05-18T05:59:13.829Z,3.06
2023-05-18T06:00:47.516Z,2.49
2023-05-18T06:02:34.223Z,2.39
2023-05-18T06:04:16.251Z,2.79
2023-05-18T06:05:49.555Z,2.48
2023-05-18T06:07:18.758Z,2.31
2023-05-18T06:09:04.229Z,3.01
2023-05-18T06:10:40.646Z,2.74
2023-05-18T06:12:03.365Z,2.82
2023-05-18T06:13:37.098Z,2.35
2023-05-18T06:15:10.701Z,2.89
2023-05-18T06:16:53.411Z,2.88
2023-05-18T06:18:27.250Z,2.62
2023-05-18T06:20:20.495Z,2.78
2023-05-18T06:21:54.020Z,2.51
2023-05-18T06:23:27.623Z,2.79
2023-05-18T06:25:16.364Z,2.60
2023-05-18T06:26:59.505Z,3.06
2023-05-18T06:29:26.691Z,2.61
2023-05-18T06:31:09.312Z,3.18
2023-05-18T06:33:08.602Z,2.90
2023-05-18T06:34:54.169Z,2.49
2023-05-18T06:36:39.099Z,2.93
2023-05-18T06:38:12.380Z,2.90
2023-05-18T06:39:45.841Z,2.70
2023-05-18T06:41:15.320Z,2.86
2023-05-18T06:43:00.208Z,2.84
2023-05-18T06:44:43.494Z,2.58
2023-05-18T06:46:34.124Z,2.79
2023-05-18T06:48:13.291Z,3.14
2023-05-18T06:49:44.701Z,2.71
2023-05-18T06:51:06.423Z,2.70
2023-05-18T06:52:51.211Z,2.78
2023-05-18T06:54:27.164Z,2.41
2023-05-18T06:56:07.792Z,2.87
2023-05-18T06:57:41.495Z,2.49
2023-05-18T06:59:24.539Z,2.51
2023-05-18T07:00:49.255Z,2.62
2023-05-18T07:02:25.027Z,2.81
2023-05-18T07:03:46.923Z,2.63
2023-05-18T07:05:17.025Z,2.58
2023-05-18T07:06:46.463Z,2.50
2023-05-18T07:08:20.062Z,2.81
2023-05-18T07:09:54.810Z,2.78
2023-05-18T07:11:39.923Z,2.28
2023-05-18T07:13:04.481Z,2.56
2023-05-18T07:14:26.209Z,2.25
2023-05-18T07:16:06.902Z,2.60
2023-05-18T07:17:47.387Z,2.44
2023-05-18T07:19:38.288Z,2.28
2023-05-18T07:21:31.703Z,2.38
2023-05-18T07:23:07.187Z,2.35
2023-05-18T07:24:43.192Z,2.16
2023-05-18T07:26:16.576Z,2.13
2023-05-18T07:27:38.024Z,2.18
2023-05-18T07:29:11.496Z,2.27
2023-05-18T07:30:38.142Z,2.30
2023-05-18T07:32:14.378Z,2.41
2023-05-18T07:33:50.065Z,2.30
2023-05-18T07:35:19.435Z,2.61
2023-05-18T07:37:04.439Z,2.16
2023-05-18T07:38:26.316Z,2.42
2023-05-18T07:40:02.159Z,2.39
2023-05-18T07:41:47.358Z,2.63
2023-05-18T07:43:16.811Z,2.50
2023-05-18T07:45:01.685Z,2.49
2023-05-18T07:46:23.792Z,2.51
2023-05-18T07:48:12.803Z,2.55
2023-05-18T07:49:48.411Z,2.51
2023-05-18T07:51:18.372Z,2.30
2023-05-18T07:52:51.938Z,2.30
2023-05-18T07:54:16.729Z,2.22
2023-05-18T07:55:49.913Z,2.50
2023-05-18T07:57:32.833Z,2.42
2023-05-18T07:59:08.377Z,2.28
2023-05-18T08:00:44.308Z,2.40
2023-05-18T08:02:06.618Z,2.23
2023-05-18T08:03:40.404Z,2.58
2023-05-18T08:05:10.970Z,2.53
2023-05-18T08:06:47.591Z,2.35
2023-05-18T08:08:28.590Z,2.16
2023-05-18T08:10:02.251Z,2.34
2023-05-18T08:11:24.114Z,2.05
2023-05-18T08:12:57.876Z,1.93
2023-05-18T08:14:21.987Z,1.70
2023-05-18T08:15:43.780Z,1.78
2023-05-18T08:17:19.740Z,2.01
2023-05-18T08:19:00.976Z,1.61
2023-05-18T08:20:23.343Z,1.88
2023-05-18T08:22:08.266Z,1.88
2023-05-18T08:23:41.556Z,1.88
2023-05-18T08:25:26.730Z,1.80
2023-05-18T08:27:12.274Z,1.86
2023-05-18T08:28:43.595Z,1.76
2023-05-18T08:30:24.528Z,1.69
2023-05-18T08:32:00.132Z,1.25
2023-05-18T08:33:31.470Z,1.59
2023-05-18T08:35:16.197Z,1.42
2023-05-18T08:36:52.697Z,1.80
2023-05-18T08:38:26.136Z,2.01
2023-05-18T08:39:59.553Z,1.94
2023-05-18T08:41:22.677Z,1.96
2023-05-18T08:42:49.994Z,1.94
2023-05-18T08:44:24.038Z,1.93
2023-05-18T08:45:57.123Z,2.00
2023-05-18T08:47:32.180Z,2.30
2023-05-18T08:49:17.877Z,2.61
2023-05-18T08:50:51.378Z,2.32
2023-05-18T08:52:27.627Z,1.94
2023-05-18T08:54:01.070Z,2.10
2023-05-18T08:55:37.611Z,2.19
2023-05-18T08:57:11.189Z,2.38
2023-05-18T08:58:56.962Z,2.16
2023-05-18T09:00:42.308Z,1.82
2023-05-18T09:02:18.470Z,2.06
2023-05-18T09:03:53.410Z,1.92
2023-05-18T09:05:34.386Z,2.20
2023-05-18T09:07:09.863Z,1.80
2023-05-18T09:08:45.589Z,1.63
2023-05-18T09:10:21.509Z,1.88
2023-05-18T09:11:57.450Z,1.88
2023-05-18T09:13:42.656Z,1.72
2023-05-18T09:15:27.940Z,1.95
2023-05-18T09:17:18.893Z,1.98
2023-05-18T09:18:48.049Z,1.76
2023-05-18T09:20:14.149Z,1.65
2023-05-18T09:21:47.630Z,1.60
2023-05-18T09:23:21.206Z,1.53
2023-05-18T09:24:45.404Z,1.70
2023-05-18T09:26:18.746Z,1.46
2023-05-18T09:27:59.542Z,1.55
2023-05-18T09:29:23.770Z,1.91
2023-05-18T09:30:55.009Z,1.78
2023-05-18T09:32:31.031Z,1.68
2023-05-18T09:34:06.698Z,1.92
2023-05-18T09:35:28.771Z,1.57
2023-05-18T09:37:08.723Z,1.64
2023-05-18T09:38:48.542Z,1.84
2023-05-18T09:40:35.016Z,1.47
2023-05-18T09:42:28.530Z,1.89
2023-05-18T09:44:09.981Z,1.67
2023-05-18T09:45:31.755Z,1.79
2023-05-18T09:47:05.039Z,1.53
2023-05-18T09:48:27.213Z,1.73
2023-05-18T09:49:51.297Z,1.70
2023-05-18T09:51:19.169Z,2.06
2023-05-18T09:52:54.863Z,1.76
2023-05-18T09:54:26.438Z,2.52
2023-05-18T09:56:11.953Z,2.91
2023-05-18T09:57:52.893Z,3.40
2023-05-18T09:59:38.020Z,2.61
2023-05-18T10:01:02.162Z,2.62
2023-05-18T10:02:26.491Z,1.90
2023-05-18T10:03:59.886Z,2.17
2023-05-18T10:05:35.700Z,1.92
2023-05-18T10:07:02.718Z,2.04
2023-05-18T10:08:27.234Z,1.92
2023-05-18T10:10:00.863Z,2.03
2023-05-18T10:11:30.059Z,2.14
2023-05-18T10:13:01.512Z,2.09
2023-05-18T10:14:23.425Z,2.07
2023-05-18T10:15:55.168Z,1.78
2023-05-18T10:17:27.288Z,1.93
2023-05-18T10:19:20.465Z,1.97
2023-05-18T10:20:42.171Z,1.81
2023-05-18T10:22:23.131Z,1.90
2023-05-18T10:23:47.363Z,2.10
2023-05-18T10:25:21.084Z,2.15
2023-05-18T10:26:56.371Z,2.10
2023-05-18T10:28:21.036Z,2.16
2023-05-18T10:29:57.055Z,2.10
2023-05-18T10:31:28.524Z,2.02
2023-05-18T10:33:02.040Z,1.90
2023-05-18T10:34:24.642Z,2.21
2023-05-18T10:35:53.984Z,2.09
2023-05-18T10:37:25.633Z,2.12
2023-05-18T10:38:51.956Z,1.94
2023-05-18T10:40:21.232Z,2.33
2023-05-18T10:41:45.041Z,4.64
2023-05-18T10:43:09.078Z,2.49
2023-05-18T10:44:33.056Z,2.28
2023-05-18T10:45:55.092Z,2.16
2023-05-18T10:47:36.031Z,2.32
2023-05-18T10:48:58.285Z,2.26
2023-05-18T10:50:20.037Z,2.20
2023-05-18T10:51:53.358Z,2.07
2023-05-18T10:53:17.343Z,1.83
2023-05-18T10:54:49.003Z,1.98
2023-05-18T10:56:10.962Z,1.97
2023-05-18T10:57:44.520Z,2.05
2023-05-18T10:59:06.133Z,1.96
2023-05-18T11:00:28.038Z,1.97
2023-05-18T11:02:01.328Z,2.20
2023-05-18T11:03:27.640Z,2.01
2023-05-18T11:04:54.002Z,2.60
2023-05-18T11:06:36.274Z,2.29
2023-05-18T11:08:09.758Z,1.96
2023-05-18T11:09:43.092Z,2.12
2023-05-18T11:11:07.324Z,2.12
2023-05-18T11:12:43.247Z,1.92
2023-05-18T11:14:12.717Z,1.98
2023-05-18T11:15:34.488Z,2.10
2023-05-18T11:17:09.959Z,2.03
2023-05-18T11:18:31.571Z,2.25
2023-05-18T11:20:09.096Z,2.19
2023-05-18T11:21:42.922Z,2.05
2023-05-18T11:23:24.191Z,2.15
2023-05-18T11:24:48.201Z,2.01
2023-05-18T11:26:10.853Z,2.04
2023-05-18T11:27:46.684Z,1.80
2023-05-18T11:29:19.684Z,1.96
2023-05-18T11:30:51.263Z,2.00
2023-05-18T11:32:30.010Z,2.12
2023-05-18T11:33:53.119Z,2.16
2023-05-18T11:35:26.536Z,1.81
2023-05-18T11:36:50.942Z,2.10
2023-05-18T11:38:20.577Z,2.11
2023-05-18T11:39:55.321Z,1.90
2023-05-18T11:41:43.564Z,1.97
2023-05-18T11:43:10.419Z,2.29
2023-05-18T11:44:46.165Z,2.18
2023-05-18T11:46:19.957Z,2.32
2023-05-18T11:47:56.889Z,2.11
2023-05-18T11:49:26.734Z,2.07
2023-05-18T11:51:14.184Z,1.94
2023-05-18T11:52:38.671Z,1.98
2023-05-18T11:54:07.996Z,2.18
2023-05-18T11:55:30.180Z,2.17
2023-05-18T11:56:52.118Z,2.16
2023-05-18T11:58:19.125Z,1.87
2023-05-18T11:59:43.220Z,2.09
2023-05-18T12:01:17.809Z,2.18
2023-05-18T12:02:47.441Z,1.97
2023-05-18T12:04:10.895Z,2.23
2023-05-18T12:05:49.333Z,2.25
2023-05-18T12:07:25.282Z,2.17
2023-05-18T12:08:51.852Z,2.19
2023-05-18T12:10:25.960Z,2.38
2023-05-18T12:11:47.973Z,2.52
2023-05-18T12:13:14.373Z,2.67
2023-05-18T12:14:54.806Z,2.31
2023-05-18T12:16:17.353Z,2.54
2023-05-18T12:17:41.804Z,2.38
2023-05-18T12:19:08.694Z,2.79
2023-05-18T12:20:42.365Z,2.53
2023-05-18T12:22:27.755Z,2.38
2023-05-18T12:23:49.576Z,2.41
2023-05-18T12:25:34.531Z,2.38
2023-05-18T12:27:08.248Z,2.41
2023-05-18T12:28:43.746Z,2.17
2023-05-18T12:30:17.636Z,2.19
2023-05-18T12:31:38.994Z,2.45
2023-05-18T12:33:02.992Z,2.62
2023-05-18T12:34:36.707Z,2.50
2023-05-18T12:36:10.261Z,2.63
2023-05-18T12:37:45.169Z,2.41
2023-05-18T12:39:14.533Z,2.60
2023-05-18T12:40:44.030Z,2.28
2023-05-18T12:42:25.255Z,2.15
2023-05-18T12:43:54.651Z,2.44
2023-05-18T12:45:18.872Z,2.21
2023-05-18T12:46:57.244Z,2.39
2023-05-18T12:48:26.452Z,2.51
2023-05-18T12:50:11.739Z,2.40
2023-05-18T12:51:45.523Z,2.14
2023-05-18T12:53:24.088Z,2.70
2023-05-18T12:55:05.636Z,3.52
2023-05-18T12:56:38.796Z,3.44
2023-05-18T12:58:14.655Z,3.09
2023-05-18T12:59:39.243Z,2.93
2023-05-18T13:01:11.903Z,2.32
2023-05-18T13:02:36.007Z,2.47
2023-05-18T13:04:02.497Z,2.21
2023-05-18T13:05:38.672Z,2.17
2023-05-18T13:07:00.430Z,2.00
2023-05-18T13:08:24.734Z,2.02
2023-05-18T13:09:58.428Z,1.85
2023-05-18T13:11:31.869Z,2.12
2023-05-18T13:13:03.626Z,2.03
2023-05-18T13:14:46.316Z,2.03
2023-05-18T13:16:15.256Z,2.31
2023-05-18T13:17:37.402Z,2.09
2023-05-18T13:19:11.384Z,2.26
2023-05-18T13:20:36.844Z,2.26
2023-05-18T13:22:08.820Z,1.74
2023-05-18T13:23:31.048Z,1.75
2023-05-18T13:24:55.321Z,1.85
2023-05-18T13:26:18.827Z,1.70
2023-05-18T13:27:54.749Z,1.83
2023-05-18T13:29:21.098Z,1.58
2023-05-18T13:30:45.260Z,1.65
2023-05-18T13:32:18.488Z,1.66
2023-05-18T13:33:59.033Z,1.65
2023-05-18T13:35:26.425Z,1.91
2023-05-18T13:36:50.338Z,1.60
2023-05-18T13:38:23.686Z,1.86
2023-05-18T13:39:59.085Z,1.85
2023-05-18T13:41:39.486Z,1.78
2023-05-18T13:43:14.019Z,1.65
2023-05-18T13:44:50.255Z,1.59
2023-05-18T13:46:23.928Z,1.61
2023-05-18T13:48:00.716Z,1.62
2023-05-18T13:49:34.425Z,1.72
2023-05-18T13:51:07.956Z,1.68
2023-05-18T13:52:49.157Z,1.70
2023-05-18T13:54:22.526Z,1.72
2023-05-18T13:55:46.704Z,2.14
2023-05-18T13:57:27.774Z,2.06
2023-05-18T13:58:56.488Z,1.96
2023-05-18T14:00:37.708Z,6.63
2023-05-18T14:02:11.242Z,5.77
2023-05-18T14:03:44.804Z,1.60
2023-05-18T14:05:29.970Z,1.72
2023-05-18T14:07:07.617Z,1.87
2023-05-18T14:08:31.633Z,1.78
2023-05-18T14:10:05.244Z,1.62
2023-05-18T14:11:38.587Z,1.94
2023-05-18T14:13:11.935Z,1.68
2023-05-18T14:14:52.840Z,1.58
2023-05-18T14:16:26.692Z,1.42
2023-05-18T14:18:00.361Z,1.62
2023-05-18T14:19:33.996Z,2.00
2023-05-18T14:20:57.676Z,1.83
2023-05-18T14:22:40.234Z,1.79
2023-05-18T14:24:21.675Z,1.81
2023-05-18T14:25:55.000Z,1.88
2023-05-18T14:27:24.304Z,1.78
2023-05-18T14:28:57.773Z,1.68
2023-05-18T14:30:21.827Z,1.98
2023-05-18T14:31:47.967Z,1.89
2023-05-18T14:33:28.845Z,1.69
2023-05-18T14:35:02.377Z,1.67
2023-05-18T14:36:35.975Z,1.71
2023-05-18T14:38:12.707Z,1.84
2023-05-18T14:39:37.785Z,1.83
2023-05-18T14:41:11.202Z,2.16
2023-05-18T14:42:36.371Z,2.44
2023-05-18T14:44:09.925Z,2.41
2023-05-18T14:45:41.077Z,2.24
2023-05-18T14:47:10.922Z,2.02
2023-05-18T14:48:32.769Z,2.10
2023-05-18T14:49:56.810Z,1.78
2023-05-18T14:51:23.489Z,1.86
2023-05-18T14:52:54.770Z,1.73
2023-05-18T14:54:28.377Z,1.89
2023-05-18T14:56:16.016Z,1.94
2023-05-18T14:57:37.979Z,1.86
2023-05-18T14:59:03.981Z,1.68
2023-05-18T15:00:28.128Z,1.81
2023-05-18T15:02:13.457Z,1.88
2023-05-18T15:03:37.400Z,1.52
2023-05-18T15:05:11.488Z,1.49
2023-05-18T15:06:56.472Z,1.66
2023-05-18T15:08:37.708Z,1.72
2023-05-18T15:10:11.380Z,1.82
2023-05-18T15:11:33.092Z,1.67
2023-05-18T15:13:04.832Z,1.56
2023-05-18T15:14:38.154Z,1.63
2023-05-18T15:16:04.753Z,1.72
2023-05-18T15:17:38.209Z,1.39
2023-05-18T15:19:07.100Z,1.79
2023-05-18T15:20:31.998Z,1.48
2023-05-18T15:22:07.772Z,1.77
2023-05-18T15:23:32.256Z,1.96
2023-05-18T15:25:14.385Z,2.05
2023-05-18T15:26:50.048Z,1.74
2023-05-18T15:28:23.472Z,2.21
2023-05-18T15:29:57.017Z,2.18
2023-05-18T15:31:30.720Z,1.76
2023-05-18T15:33:06.423Z,1.97
2023-05-18T15:34:40.382Z,1.87
2023-05-18T15:36:16.015Z,1.87
2023-05-18T15:37:47.507Z,1.63
2023-05-18T15:39:17.026Z,1.64
2023-05-18T15:40:52.449Z,1.84
2023-05-18T15:42:33.638Z,1.48
2023-05-18T15:44:03.896Z,1.93
2023-05-18T15:45:37.430Z,3.27
2023-05-18T15:47:01.378Z,3.00
2023-05-18T15:48:37.395Z,2.29
2023-05-18T15:50:22.470Z,2.30
2023-05-18T15:51:44.577Z,2.18
2023-05-18T15:53:25.697Z,1.99
2023-05-18T15:54:49.444Z,1.78
2023-05-18T15:56:22.745Z,1.79
2023-05-18T15:57:55.663Z,1.65
2023-05-18T15:59:17.459Z,1.82
2023-05-18T16:00:46.568Z,1.63
2023-05-18T16:02:15.528Z,1.42
2023-05-18T16:03:49.262Z,1.60
2023-05-18T16:05:22.951Z,1.66
2023-05-18T16:07:08.159Z,1.47
2023-05-18T16:08:32.314Z,1.76
2023-05-18T16:09:54.066Z,1.60
2023-05-18T16:11:27.915Z,1.61
2023-05-18T16:13:00.462Z,1.61
2023-05-18T16:14:41.337Z,1.68
2023-05-18T16:16:14.446Z,1.55
2023-05-18T16:17:47.850Z,1.54
2023-05-18T16:19:09.524Z,1.45
2023-05-18T16:20:33.985Z,1.36
2023-05-18T16:22:10.031Z,1.49
2023-05-18T16:23:55.295Z,1.65
2023-05-18T16:25:24.628Z,1.34
2023-05-18T16:27:09.727Z,1.65
2023-05-18T16:28:51.254Z,1.38
2023-05-18T16:30:24.637Z,1.80
2023-05-18T16:31:57.996Z,1.63
2023-05-18T16:33:43.413Z,1.58
2023-05-18T16:35:17.225Z,1.54
2023-05-18T16:36:46.816Z,2.53
2023-05-18T16:38:18.345Z,1.79
2023-05-18T16:39:58.981Z,2.07
2023-05-18T16:41:21.990Z,1.63
2023-05-18T16:42:47.416Z,1.79
2023-05-18T16:44:13.935Z,1.52
2023-05-18T16:45:47.447Z,1.77
2023-05-18T16:47:24.175Z,1.68
2023-05-18T16:49:00.147Z,1.79
2023-05-18T16:50:39.022Z,1.74
2023-05-18T16:52:23.676Z,1.64
2023-05-18T16:53:47.922Z,1.92
2023-05-18T16:55:23.565Z,1.81
2023-05-18T16:56:45.653Z,1.74
2023-05-18T16:58:28.552Z,1.97
2023-05-18T16:59:59.963Z,1.95
2023-05-18T17:01:28.678Z,2.11
2023-05-18T17:03:03.543Z,2.34
2023-05-18T17:04:48.866Z,2.15
2023-05-18T17:06:10.701Z,1.98
2023-05-18T17:07:42.218Z,2.02
2023-05-18T17:09:15.744Z,1.87
2023-05-18T17:10:51.187Z,1.87
2023-05-18T17:12:17.440Z,1.82
2023-05-18T17:13:50.437Z,1.86
2023-05-18T17:15:17.537Z,1.81
2023-05-18T17:16:58.338Z,1.99
2023-05-18T17:18:25.085Z,2.04
2023-05-18T17:19:50.975Z,1.98
2023-05-18T17:21:34.605Z,1.99
2023-05-18T17:23:15.488Z,2.07
2023-05-18T17:24:48.898Z,1.81
2023-05-18T17:26:22.305Z,1.93
2023-05-18T17:28:08.124Z,2.14
2023-05-18T17:29:37.679Z,2.09
2023-05-18T17:31:23.087Z,2.11
2023-05-18T17:32:57.100Z,2.21
2023-05-18T17:34:30.687Z,2.14
2023-05-18T17:36:04.066Z,2.55
2023-05-18T17:37:45.586Z,2.33
2023-05-18T17:39:19.939Z,2.61
2023-05-18T17:40:59.730Z,2.86
2023-05-18T17:42:33.151Z,2.46
2023-05-18T17:44:13.772Z,2.91
2023-05-18T17:45:37.864Z,4.72
2023-05-18T17:47:11.554Z,4.93
2023-05-18T17:48:47.478Z,5.84
2023-05-18T17:50:21.078Z,6.53
2023-05-18T17:52:01.824Z,6.56
2023-05-18T17:53:47.357Z,6.26
2023-05-18T17:55:20.548Z,6.31
2023-05-18T17:56:56.581Z,6.42
2023-05-18T17:58:41.797Z,6.77
2023-05-18T18:00:18.039Z,6.32
2023-05-18T18:02:03.264Z,5.07
2023-05-18T18:03:40.092Z,5.04
2023-05-18T18:05:06.434Z,4.39
2023-05-18T18:06:42.332Z,4.45
2023-05-18T18:08:18.373Z,4.71
2023-05-18T18:10:03.230Z,4.32
2023-05-18T18:11:27.437Z,4.38
2023-05-18T18:12:49.344Z,4.33
2023-05-18T18:14:25.115Z,4.35
2023-05-18T18:15:58.625Z,5.14
2023-05-18T18:17:32.116Z,5.53
2023-05-18T18:19:06.320Z,5.95
2023-05-18T18:20:41.830Z,6.21
2023-05-18T18:22:06.054Z,7.18
2023-05-18T18:23:47.041Z,6.73
2023-05-18T18:25:32.097Z,6.19
2023-05-18T18:27:03.311Z,6.03
2023-05-18T18:28:29.582Z,5.71
2023-05-18T18:30:14.993Z,5.40
2023-05-18T18:31:43.993Z,4.78
2023-05-18T18:33:20.287Z,4.48
2023-05-18T18:34:54.063Z,4.86
2023-05-18T18:36:30.918Z,4.43
2023-05-18T18:38:15.871Z,4.85
2023-05-18T18:39:49.117Z,4.51
2023-05-18T18:41:22.872Z,5.18
2023-05-18T18:42:55.053Z,5.11
2023-05-18T18:44:19.013Z,4.91
2023-05-18T18:45:54.993Z,5.21
2023-05-18T18:47:17.004Z,5.08
2023-05-18T18:48:50.234Z,4.87
2023-05-18T18:50:24.949Z,5.09
2023-05-18T18:52:02.244Z,4.45
2023-05-18T18:53:31.429Z,4.41
2023-05-18T18:54:57.601Z,4.27
2023-05-18T18:56:41.724Z,4.21
2023-05-18T18:58:08.584Z,4.89
2023-05-18T18:59:48.832Z,4.24
2023-05-18T19:01:33.746Z,5.14
2023-05-18T19:03:14.209Z,4.88
2023-05-18T19:04:39.290Z,5.04
2023-05-18T19:06:10.437Z,4.80
2023-05-18T19:07:55.451Z,5.18
2023-05-18T19:09:38.086Z,5.43
2023-05-18T19:11:33.263Z,5.10
2023-05-18T19:13:10.984Z,5.03
2023-05-18T19:14:44.739Z,5.07
2023-05-18T19:16:17.117Z,4.82
2023-05-18T19:17:56.971Z,4.29
2023-05-18T19:19:31.967Z,4.84
2023-05-18T19:21:01.114Z,4.70
2023-05-18T19:22:23.224Z,4.51
2023-05-18T19:23:59.433Z,5.09
2023-05-18T19:25:30.202Z,5.24
2023-05-18T19:27:08.480Z,5.00
2023-05-18T19:28:42.273Z,4.62
2023-05-18T19:30:28.190Z,4.70
2023-05-18T19:31:54.744Z,4.29
2023-05-18T19:33:28.273Z,4.51
2023-05-18T19:34:52.371Z,5.05
2023-05-18T19:36:14.436Z,4.89
2023-05-18T19:37:48.204Z,5.06
2023-05-18T19:39:12.409Z,5.10
2023-05-18T19:40:36.832Z,4.80
2023-05-18T19:42:12.494Z,4.74
2023-05-18T19:43:52.841Z,5.09
2023-05-18T19:45:26.678Z,4.94
2023-05-18T19:47:00.156Z,4.46
2023-05-18T19:48:21.833Z,4.41
2023-05-18T19:49:58.197Z,5.00
2023-05-18T19:51:19.924Z,5.43
2023-05-18T19:52:49.966Z,5.59
2023-05-18T19:54:14.338Z,5.39
2023-05-18T19:55:49.659Z,5.55
2023-05-18T19:57:23.105Z,6.60
2023-05-18T19:58:45.007Z,7.79
2023-05-18T20:00:29.706Z,7.42
2023-05-18T20:01:59.330Z,5.82
2023-05-18T20:03:23.475Z,5.58
2023-05-18T20:04:56.752Z,5.34
2023-05-18T20:06:28.644Z,5.55
2023-05-18T20:08:02.843Z,6.15
2023-05-18T20:09:27.047Z,7.27
2023-05-18T20:11:02.593Z,7.90
2023-05-18T20:12:36.223Z,6.77
2023-05-18T20:14:01.292Z,7.39
2023-05-18T20:15:37.097Z,6.98
2023-05-18T20:17:01.442Z,8.05
2023-05-18T20:18:35.836Z,8.49
2023-05-18T20:19:59.861Z,8.31
2023-05-18T20:21:29.008Z,8.02
2023-05-18T20:23:02.360Z,8.44
2023-05-18T20:24:24.483Z,8.42
2023-05-18T20:26:06.527Z,9.20
2023-05-18T20:27:51.664Z,9.93
2023-05-18T20:29:39.247Z,9.85
2023-05-18T20:31:24.447Z,10.30
2023-05-18T20:32:46.680Z,11.66
2023-05-18T20:34:15.812Z,13.55
2023-05-18T20:35:37.595Z,15.78
2023-05-18T20:37:20.287Z,16.82
2023-05-18T20:38:54.327Z,16.97
2023-05-18T20:40:18.931Z,17.74
2023-05-18T20:41:50.374Z,18.33
2023-05-18T20:43:18.044Z,27.24
2023-05-18T20:45:03.296Z,34.57
2023-05-18T20:46:36.767Z,31.66
2023-05-18T20:48:08.953Z,20.79